sensor_id;sensor_type;location;lat;lon;timestamp;P1;durP1;ratioP1;P2;durP2;ratioP2
48052;SDS011;33824;51.600;5.718;2022-11-20T00:00:45;18.85;;;9.20;;
48052;SDS011;33824;51.600;5.718;2022-11-20T00:03:18;16.60;;;9.65;;
48052;SDS011;33824;51.600;5.718;2022-11-20T00:05:44;19.77;;;10.52;;
48052;SDS011;33824;51.600;5.718;2022-11-20T00:08:12;18.63;;;10.43;;
48052;SDS011;33824;51.600;5.718;2022-11-20T00:10:38;19.38;;;10.43;;
48052;SDS011;33824;51.600;5.718;2022-11-20T00:13:05;15.52;;;9.07;;
48052;SDS011;33824;51.600;5.718;2022-11-20T00:15:31;18.25;;;10.48;;
48052;SDS011;33824;51.600;5.718;2022-11-20T00:17:56;20.75;;;11.15;;
48052;SDS011;33824;51.600;5.718;2022-11-20T00:20:22;18.50;;;9.80;;
48052;SDS011;33824;51.600;5.718;2022-11-20T00:22:48;18.92;;;10.90;;
48052;SDS011;33824;51.600;5.718;2022-11-20T00:25:15;20.25;;;10.85;;
48052;SDS011;33824;51.600;5.718;2022-11-20T00:27:40;21.27;;;11.07;;
48052;SDS011;33824;51.600;5.718;2022-11-20T00:30:06;18.52;;;9.43;;
48052;SDS011;33824;51.600;5.718;2022-11-20T00:32:32;18.13;;;9.98;;
48052;SDS011;33824;51.600;5.718;2022-11-20T00:34:58;23.20;;;10.93;;
48052;SDS011;33824;51.600;5.718;2022-11-20T00:37:24;19.80;;;9.73;;
48052;SDS011;33824;51.600;5.718;2022-11-20T00:39:49;19.63;;;9.05;;
48052;SDS011;33824;51.600;5.718;2022-11-20T00:42:14;19.08;;;9.98;;
48052;SDS011;33824;51.600;5.718;2022-11-20T00:44:40;18.40;;;10.38;;
48052;SDS011;33824;51.600;5.718;2022-11-20T00:47:06;18.65;;;10.70;;
48052;SDS011;33824;51.600;5.718;2022-11-20T00:49:31;23.38;;;11.18;;
48052;SDS011;33824;51.600;5.718;2022-11-20T00:51:57;20.45;;;11.15;;
48052;SDS011;33824;51.600;5.718;2022-11-20T00:54:22;23.80;;;11.27;;
48052;SDS011;33824;51.600;5.718;2022-11-20T00:56:48;20.48;;;11.50;;
48052;SDS011;33824;51.600;5.718;2022-11-20T00:59:14;20.40;;;11.13;;
48052;SDS011;33824;51.600;5.718;2022-11-20T01:01:39;20.98;;;11.48;;
48052;SDS011;33824;51.600;5.718;2022-11-20T01:04:05;23.52;;;11.43;;
48052;SDS011;33824;51.600;5.718;2022-11-20T01:06:31;19.75;;;10.82;;
48052;SDS011;33824;51.600;5.718;2022-11-20T01:09:00;16.48;;;10.00;;
48052;SDS011;33824;51.600;5.718;2022-11-20T01:11:31;23.95;;;11.27;;
48052;SDS011;33824;51.600;5.718;2022-11-20T01:13:59;22.07;;;11.43;;
48052;SDS011;33824;51.600;5.718;2022-11-20T01:16:34;21.67;;;11.18;;
48052;SDS011;33824;51.600;5.718;2022-11-20T01:19:04;21.63;;;12.32;;
48052;SDS011;33824;51.600;5.718;2022-11-20T01:21:33;25.58;;;12.95;;
48052;SDS011;33824;51.600;5.718;2022-11-20T01:24:00;22.90;;;12.10;;
48052;SDS011;33824;51.600;5.718;2022-11-20T01:26:27;23.55;;;11.73;;
48052;SDS011;33824;51.600;5.718;2022-11-20T01:28:55;24.45;;;11.43;;
48052;SDS011;33824;51.600;5.718;2022-11-20T01:31:26;23.10;;;12.05;;
48052;SDS011;33824;51.600;5.718;2022-11-20T01:33:55;22.35;;;12.00;;
48052;SDS011;33824;51.600;5.718;2022-11-20T01:36:23;21.85;;;12.65;;
48052;SDS011;33824;51.600;5.718;2022-11-20T01:38:51;21.77;;;12.10;;
48052;SDS011;33824;51.600;5.718;2022-11-20T01:41:18;21.83;;;12.20;;
48052;SDS011;33824;51.600;5.718;2022-11-20T01:44:03;19.05;;;10.98;;
48052;SDS011;33824;51.600;5.718;2022-11-20T01:46:30;20.40;;;11.43;;
48052;SDS011;33824;51.600;5.718;2022-11-20T01:49:16;20.88;;;11.65;;
48052;SDS011;33824;51.600;5.718;2022-11-20T01:51:53;18.50;;;10.63;;
48052;SDS011;33824;51.600;5.718;2022-11-20T01:54:26;18.00;;;10.95;;
48052;SDS011;33824;51.600;5.718;2022-11-20T01:57:05;22.38;;;12.13;;
48052;SDS011;33824;51.600;5.718;2022-11-20T01:59:34;19.42;;;11.27;;
48052;SDS011;33824;51.600;5.718;2022-11-20T02:02:05;29.80;;;12.48;;
48052;SDS011;33824;51.600;5.718;2022-11-20T02:04:30;26.83;;;12.15;;
48052;SDS011;33824;51.600;5.718;2022-11-20T02:07:00;21.58;;;11.35;;
48052;SDS011;33824;51.600;5.718;2022-11-20T02:09:27;21.05;;;11.65;;
48052;SDS011;33824;51.600;5.718;2022-11-20T02:11:53;18.08;;;11.32;;
48052;SDS011;33824;51.600;5.718;2022-11-20T02:14:20;18.80;;;10.82;;
48052;SDS011;33824;51.600;5.718;2022-11-20T02:16:48;22.85;;;12.20;;
48052;SDS011;33824;51.600;5.718;2022-11-20T02:19:36;20.25;;;11.68;;
48052;SDS011;33824;51.600;5.718;2022-11-20T02:22:11;20.77;;;12.00;;
48052;SDS011;33824;51.600;5.718;2022-11-20T02:24:43;25.08;;;11.90;;
48052;SDS011;33824;51.600;5.718;2022-11-20T02:27:12;21.70;;;10.13;;
48052;SDS011;33824;51.600;5.718;2022-11-20T02:29:46;24.45;;;13.45;;
48052;SDS011;33824;51.600;5.718;2022-11-20T02:32:20;24.25;;;13.10;;
48052;SDS011;33824;51.600;5.718;2022-11-20T02:35:08;21.73;;;11.98;;
48052;SDS011;33824;51.600;5.718;2022-11-20T02:37:59;20.23;;;12.05;;
48052;SDS011;33824;51.600;5.718;2022-11-20T02:40:28;20.50;;;12.00;;
48052;SDS011;33824;51.600;5.718;2022-11-20T02:42:54;19.90;;;11.65;;
48052;SDS011;33824;51.600;5.718;2022-11-20T02:45:20;24.40;;;12.23;;
48052;SDS011;33824;51.600;5.718;2022-11-20T02:47:46;23.05;;;11.85;;
48052;SDS011;33824;51.600;5.718;2022-11-20T02:50:12;20.80;;;11.60;;
48052;SDS011;33824;51.600;5.718;2022-11-20T02:52:37;26.75;;;12.15;;
48052;SDS011;33824;51.600;5.718;2022-11-20T02:55:03;20.90;;;12.23;;
48052;SDS011;33824;51.600;5.718;2022-11-20T02:57:29;20.92;;;12.38;;
48052;SDS011;33824;51.600;5.718;2022-11-20T02:59:54;21.27;;;11.60;;
48052;SDS011;33824;51.600;5.718;2022-11-20T03:02:20;21.02;;;12.32;;
48052;SDS011;33824;51.600;5.718;2022-11-20T03:04:46;23.73;;;12.60;;
48052;SDS011;33824;51.600;5.718;2022-11-20T03:07:12;20.65;;;12.38;;
48052;SDS011;33824;51.600;5.718;2022-11-20T03:09:37;21.45;;;12.18;;
48052;SDS011;33824;51.600;5.718;2022-11-20T03:12:03;24.50;;;12.35;;
48052;SDS011;33824;51.600;5.718;2022-11-20T03:14:29;22.63;;;12.23;;
48052;SDS011;33824;51.600;5.718;2022-11-20T03:16:54;20.73;;;11.75;;
48052;SDS011;33824;51.600;5.718;2022-11-20T03:19:20;27.10;;;14.30;;
48052;SDS011;33824;51.600;5.718;2022-11-20T03:21:46;24.67;;;13.70;;
48052;SDS011;33824;51.600;5.718;2022-11-20T03:24:12;24.40;;;13.50;;
48052;SDS011;33824;51.600;5.718;2022-11-20T03:26:38;27.30;;;13.00;;
48052;SDS011;33824;51.600;5.718;2022-11-20T03:29:07;22.48;;;12.63;;
48052;SDS011;33824;51.600;5.718;2022-11-20T03:31:33;25.30;;;12.48;;
48052;SDS011;33824;51.600;5.718;2022-11-20T03:34:04;26.63;;;13.55;;
48052;SDS011;33824;51.600;5.718;2022-11-20T03:36:30;21.20;;;12.40;;
48052;SDS011;33824;51.600;5.718;2022-11-20T03:38:56;20.63;;;12.70;;
48052;SDS011;33824;51.600;5.718;2022-11-20T03:41:23;23.98;;;12.25;;
48052;SDS011;33824;51.600;5.718;2022-11-20T03:43:51;23.30;;;11.98;;
48052;SDS011;33824;51.600;5.718;2022-11-20T03:46:18;20.95;;;12.35;;
48052;SDS011;33824;51.600;5.718;2022-11-20T03:48:45;20.75;;;11.48;;
48052;SDS011;33824;51.600;5.718;2022-11-20T03:51:12;21.55;;;11.75;;
48052;SDS011;33824;51.600;5.718;2022-11-20T03:53:42;21.02;;;12.38;;
48052;SDS011;33824;51.600;5.718;2022-11-20T03:56:10;22.23;;;12.48;;
48052;SDS011;33824;51.600;5.718;2022-11-20T03:58:37;22.85;;;13.40;;
48052;SDS011;33824;51.600;5.718;2022-11-20T04:01:28;23.58;;;12.80;;
48052;SDS011;33824;51.600;5.718;2022-11-20T04:03:55;23.15;;;12.13;;
48052;SDS011;33824;51.600;5.718;2022-11-20T04:06:23;24.45;;;13.45;;
48052;SDS011;33824;51.600;5.718;2022-11-20T04:08:51;24.92;;;13.27;;
48052;SDS011;33824;51.600;5.718;2022-11-20T04:11:21;21.48;;;12.68;;
48052;SDS011;33824;51.600;5.718;2022-11-20T04:13:49;21.25;;;11.82;;
48052;SDS011;33824;51.600;5.718;2022-11-20T04:16:19;24.30;;;12.02;;
48052;SDS011;33824;51.600;5.718;2022-11-20T04:18:46;23.38;;;12.68;;
48052;SDS011;33824;51.600;5.718;2022-11-20T04:21:12;24.35;;;13.77;;
48052;SDS011;33824;51.600;5.718;2022-11-20T04:23:38;27.27;;;13.73;;
48052;SDS011;33824;51.600;5.718;2022-11-20T04:26:04;21.90;;;12.32;;
48052;SDS011;33824;51.600;5.718;2022-11-20T04:28:35;26.70;;;13.67;;
48052;SDS011;33824;51.600;5.718;2022-11-20T04:31:02;24.50;;;12.77;;
48052;SDS011;33824;51.600;5.718;2022-11-20T04:33:29;33.08;;;13.70;;
48052;SDS011;33824;51.600;5.718;2022-11-20T04:35:54;23.63;;;13.00;;
48052;SDS011;33824;51.600;5.718;2022-11-20T04:38:20;22.90;;;12.15;;
48052;SDS011;33824;51.600;5.718;2022-11-20T04:40:46;21.33;;;12.10;;
48052;SDS011;33824;51.600;5.718;2022-11-20T04:43:11;26.55;;;13.00;;
48052;SDS011;33824;51.600;5.718;2022-11-20T04:45:37;22.05;;;12.80;;
48052;SDS011;33824;51.600;5.718;2022-11-20T04:48:02;23.27;;;12.90;;
48052;SDS011;33824;51.600;5.718;2022-11-20T04:50:30;23.48;;;12.50;;
48052;SDS011;33824;51.600;5.718;2022-11-20T04:52:55;22.95;;;12.95;;
48052;SDS011;33824;51.600;5.718;2022-11-20T04:55:21;23.25;;;12.38;;
48052;SDS011;33824;51.600;5.718;2022-11-20T04:57:49;25.80;;;12.35;;
48052;SDS011;33824;51.600;5.718;2022-11-20T05:00:19;24.00;;;13.70;;
48052;SDS011;33824;51.600;5.718;2022-11-20T05:02:45;22.60;;;12.73;;
48052;SDS011;33824;51.600;5.718;2022-11-20T05:05:11;22.35;;;12.68;;
48052;SDS011;33824;51.600;5.718;2022-11-20T05:07:36;22.63;;;12.90;;
48052;SDS011;33824;51.600;5.718;2022-11-20T05:10:02;24.27;;;12.88;;
48052;SDS011;33824;51.600;5.718;2022-11-20T05:12:28;23.98;;;12.27;;
48052;SDS011;33824;51.600;5.718;2022-11-20T05:14:53;24.50;;;13.05;;
48052;SDS011;33824;51.600;5.718;2022-11-20T05:17:19;23.17;;;11.68;;
48052;SDS011;33824;51.600;5.718;2022-11-20T05:19:44;18.80;;;11.45;;
48052;SDS011;33824;51.600;5.718;2022-11-20T05:22:10;23.25;;;12.38;;
48052;SDS011;33824;51.600;5.718;2022-11-20T05:24:36;24.67;;;12.63;;
48052;SDS011;33824;51.600;5.718;2022-11-20T05:27:01;21.98;;;12.25;;
48052;SDS011;33824;51.600;5.718;2022-11-20T05:29:27;24.70;;;12.00;;
48052;SDS011;33824;51.600;5.718;2022-11-20T05:31:52;23.10;;;12.23;;
48052;SDS011;33824;51.600;5.718;2022-11-20T05:34:18;22.38;;;12.98;;
48052;SDS011;33824;51.600;5.718;2022-11-20T05:36:43;22.33;;;12.68;;
48052;SDS011;33824;51.600;5.718;2022-11-20T05:39:09;22.95;;;12.93;;
48052;SDS011;33824;51.600;5.718;2022-11-20T05:41:35;26.27;;;12.68;;
48052;SDS011;33824;51.600;5.718;2022-11-20T05:44:00;23.80;;;13.60;;
48052;SDS011;33824;51.600;5.718;2022-11-20T05:46:26;22.52;;;12.88;;
48052;SDS011;33824;51.600;5.718;2022-11-20T05:48:52;20.08;;;12.10;;
48052;SDS011;33824;51.600;5.718;2022-11-20T05:51:18;24.95;;;12.18;;
48052;SDS011;33824;51.600;5.718;2022-11-20T05:53:44;21.52;;;12.50;;
48052;SDS011;33824;51.600;5.718;2022-11-20T05:56:11;23.38;;;12.68;;
48052;SDS011;33824;51.600;5.718;2022-11-20T05:58:41;22.52;;;12.50;;
48052;SDS011;33824;51.600;5.718;2022-11-20T06:01:09;24.23;;;12.10;;
48052;SDS011;33824;51.600;5.718;2022-11-20T06:03:39;21.92;;;12.80;;
48052;SDS011;33824;51.600;5.718;2022-11-20T06:06:07;22.27;;;12.63;;
48052;SDS011;33824;51.600;5.718;2022-11-20T06:08:33;24.77;;;12.65;;
48052;SDS011;33824;51.600;5.718;2022-11-20T06:11:03;21.05;;;11.82;;
48052;SDS011;33824;51.600;5.718;2022-11-20T06:13:30;23.95;;;12.93;;
48052;SDS011;33824;51.600;5.718;2022-11-20T06:15:55;22.33;;;12.10;;
48052;SDS011;33824;51.600;5.718;2022-11-20T06:18:21;22.70;;;12.75;;
48052;SDS011;33824;51.600;5.718;2022-11-20T06:20:47;23.45;;;13.10;;
48052;SDS011;33824;51.600;5.718;2022-11-20T06:23:12;33.30;;;12.73;;
48052;SDS011;33824;51.600;5.718;2022-11-20T06:25:41;27.38;;;13.82;;
48052;SDS011;33824;51.600;5.718;2022-11-20T06:28:07;22.75;;;12.27;;
48052;SDS011;33824;51.600;5.718;2022-11-20T06:30:34;25.73;;;12.60;;
48052;SDS011;33824;51.600;5.718;2022-11-20T06:33:00;24.05;;;13.65;;
48052;SDS011;33824;51.600;5.718;2022-11-20T06:35:26;22.77;;;13.15;;
48052;SDS011;33824;51.600;5.718;2022-11-20T06:37:51;24.55;;;13.57;;
48052;SDS011;33824;51.600;5.718;2022-11-20T06:40:17;23.17;;;13.77;;
48052;SDS011;33824;51.600;5.718;2022-11-20T06:42:42;21.77;;;13.48;;
48052;SDS011;33824;51.600;5.718;2022-11-20T06:45:08;22.38;;;12.70;;
48052;SDS011;33824;51.600;5.718;2022-11-20T06:47:34;24.40;;;12.68;;
48052;SDS011;33824;51.600;5.718;2022-11-20T06:50:00;24.05;;;13.70;;
48052;SDS011;33824;51.600;5.718;2022-11-20T06:52:25;26.52;;;13.60;;
48052;SDS011;33824;51.600;5.718;2022-11-20T06:54:51;24.25;;;12.55;;
48052;SDS011;33824;51.600;5.718;2022-11-20T06:57:16;23.27;;;13.00;;
48052;SDS011;33824;51.600;5.718;2022-11-20T06:59:42;26.65;;;13.52;;
48052;SDS011;33824;51.600;5.718;2022-11-20T07:02:11;23.92;;;12.88;;
48052;SDS011;33824;51.600;5.718;2022-11-20T07:04:37;31.73;;;14.10;;
48052;SDS011;33824;51.600;5.718;2022-11-20T07:07:03;24.50;;;12.57;;
48052;SDS011;33824;51.600;5.718;2022-11-20T07:09:29;26.05;;;12.95;;
48052;SDS011;33824;51.600;5.718;2022-11-20T07:11:54;22.40;;;12.90;;
48052;SDS011;33824;51.600;5.718;2022-11-20T07:14:20;21.30;;;11.93;;
48052;SDS011;33824;51.600;5.718;2022-11-20T07:16:45;24.45;;;12.65;;
48052;SDS011;33824;51.600;5.718;2022-11-20T07:19:11;19.67;;;11.00;;
48052;SDS011;33824;51.600;5.718;2022-11-20T07:21:36;22.60;;;12.18;;
48052;SDS011;33824;51.600;5.718;2022-11-20T07:24:02;20.92;;;10.88;;
48052;SDS011;33824;51.600;5.718;2022-11-20T07:26:28;21.88;;;11.13;;
48052;SDS011;33824;51.600;5.718;2022-11-20T07:28:53;20.05;;;11.05;;
48052;SDS011;33824;51.600;5.718;2022-11-20T07:31:19;21.70;;;10.88;;
48052;SDS011;33824;51.600;5.718;2022-11-20T07:33:45;23.05;;;12.18;;
48052;SDS011;33824;51.600;5.718;2022-11-20T07:36:10;20.63;;;10.45;;
48052;SDS011;33824;51.600;5.718;2022-11-20T07:38:37;24.50;;;10.32;;
48052;SDS011;33824;51.600;5.718;2022-11-20T07:41:02;22.67;;;10.20;;
48052;SDS011;33824;51.600;5.718;2022-11-20T07:43:28;21.65;;;10.93;;
48052;SDS011;33824;51.600;5.718;2022-11-20T07:45:54;21.30;;;10.48;;
48052;SDS011;33824;51.600;5.718;2022-11-20T07:48:21;17.42;;;10.05;;
48052;SDS011;33824;51.600;5.718;2022-11-20T07:50:47;20.00;;;10.10;;
48052;SDS011;33824;51.600;5.718;2022-11-20T07:53:13;22.83;;;10.00;;
48052;SDS011;33824;51.600;5.718;2022-11-20T07:55:39;19.33;;;10.55;;
48052;SDS011;33824;51.600;5.718;2022-11-20T07:58:05;18.52;;;10.13;;
48052;SDS011;33824;51.600;5.718;2022-11-20T08:00:30;18.42;;;9.70;;
48052;SDS011;33824;51.600;5.718;2022-11-20T08:02:56;19.85;;;10.77;;
48052;SDS011;33824;51.600;5.718;2022-11-20T08:05:21;19.33;;;10.27;;
48052;SDS011;33824;51.600;5.718;2022-11-20T08:07:47;19.30;;;10.40;;
48052;SDS011;33824;51.600;5.718;2022-11-20T08:10:13;18.90;;;10.25;;
48052;SDS011;33824;51.600;5.718;2022-11-20T08:12:48;19.67;;;10.13;;
48052;SDS011;33824;51.600;5.718;2022-11-20T08:18:06;17.80;;;9.73;;
48052;SDS011;33824;51.600;5.718;2022-11-20T08:20:34;22.33;;;11.13;;
48052;SDS011;33824;51.600;5.718;2022-11-20T08:23:00;17.98;;;9.98;;
48052;SDS011;33824;51.600;5.718;2022-11-20T08:25:27;17.35;;;9.65;;
48052;SDS011;33824;51.600;5.718;2022-11-20T08:27:56;18.42;;;9.65;;
48052;SDS011;33824;51.600;5.718;2022-11-20T08:30:24;21.50;;;9.85;;
48052;SDS011;33824;51.600;5.718;2022-11-20T08:32:51;19.70;;;10.73;;
48052;SDS011;33824;51.600;5.718;2022-11-20T08:35:16;18.77;;;10.27;;
48052;SDS011;33824;51.600;5.718;2022-11-20T08:37:45;18.35;;;11.02;;
48052;SDS011;33824;51.600;5.718;2022-11-20T08:40:11;21.02;;;9.98;;
48052;SDS011;33824;51.600;5.718;2022-11-20T08:42:37;15.85;;;9.25;;
48052;SDS011;33824;51.600;5.718;2022-11-20T08:45:11;20.35;;;10.93;;
48052;SDS011;33824;51.600;5.718;2022-11-20T08:47:36;24.35;;;11.40;;
48052;SDS011;33824;51.600;5.718;2022-11-20T08:50:02;17.23;;;10.50;;
48052;SDS011;33824;51.600;5.718;2022-11-20T08:52:28;22.08;;;11.30;;
48052;SDS011;33824;51.600;5.718;2022-11-20T08:54:53;22.77;;;10.05;;
48052;SDS011;33824;51.600;5.718;2022-11-20T08:57:20;23.50;;;11.45;;
48052;SDS011;33824;51.600;5.718;2022-11-20T08:59:46;18.77;;;10.13;;
48052;SDS011;33824;51.600;5.718;2022-11-20T09:02:12;24.10;;;10.93;;
48052;SDS011;33824;51.600;5.718;2022-11-20T09:04:37;21.85;;;10.98;;
48052;SDS011;33824;51.600;5.718;2022-11-20T09:07:03;19.77;;;10.15;;
48052;SDS011;33824;51.600;5.718;2022-11-20T09:09:28;20.23;;;10.82;;
48052;SDS011;33824;51.600;5.718;2022-11-20T09:11:54;20.45;;;10.60;;
48052;SDS011;33824;51.600;5.718;2022-11-20T09:14:19;21.60;;;10.40;;
48052;SDS011;33824;51.600;5.718;2022-11-20T09:16:46;22.67;;;11.13;;
48052;SDS011;33824;51.600;5.718;2022-11-20T09:19:12;18.45;;;10.30;;
48052;SDS011;33824;51.600;5.718;2022-11-20T09:21:37;19.55;;;10.35;;
48052;SDS011;33824;51.600;5.718;2022-11-20T09:24:04;24.25;;;10.48;;
48052;SDS011;33824;51.600;5.718;2022-11-20T09:26:30;17.23;;;9.40;;
48052;SDS011;33824;51.600;5.718;2022-11-20T09:28:55;22.65;;;10.25;;
48052;SDS011;33824;51.600;5.718;2022-11-20T09:31:22;18.92;;;9.80;;
48052;SDS011;33824;51.600;5.718;2022-11-20T09:33:49;21.15;;;11.73;;
48052;SDS011;33824;51.600;5.718;2022-11-20T09:36:15;22.00;;;10.60;;
48052;SDS011;33824;51.600;5.718;2022-11-20T09:38:42;20.50;;;10.45;;
48052;SDS011;33824;51.600;5.718;2022-11-20T09:41:13;21.35;;;11.27;;
48052;SDS011;33824;51.600;5.718;2022-11-20T09:46:40;23.45;;;10.80;;
48052;SDS011;33824;51.600;5.718;2022-11-20T09:49:19;21.23;;;9.90;;
48052;SDS011;33824;51.600;5.718;2022-11-20T09:52:22;21.63;;;10.75;;
48052;SDS011;33824;51.600;5.718;2022-11-20T09:55:00;22.23;;;12.05;;
48052;SDS011;33824;51.600;5.718;2022-11-20T09:57:32;23.02;;;11.32;;
48052;SDS011;33824;51.600;5.718;2022-11-20T10:00:05;20.20;;;10.85;;
48052;SDS011;33824;51.600;5.718;2022-11-20T10:02:52;21.33;;;10.68;;
48052;SDS011;33824;51.600;5.718;2022-11-20T10:05:38;20.98;;;11.52;;
48052;SDS011;33824;51.600;5.718;2022-11-20T10:08:12;25.23;;;11.82;;
48052;SDS011;33824;51.600;5.718;2022-11-20T10:24:44;21.17;;;10.88;;
48052;SDS011;33824;51.600;5.718;2022-11-20T10:27:16;25.30;;;11.87;;
48052;SDS011;33824;51.600;5.718;2022-11-20T10:30:09;22.95;;;11.02;;
48052;SDS011;33824;51.600;5.718;2022-11-20T10:32:41;24.20;;;12.02;;
48052;SDS011;33824;51.600;5.718;2022-11-20T10:37:58;28.63;;;12.15;;
48052;SDS011;33824;51.600;5.718;2022-11-20T10:43:21;24.30;;;12.82;;
48052;SDS011;33824;51.600;5.718;2022-11-20T10:46:05;23.40;;;11.93;;
48052;SDS011;33824;51.600;5.718;2022-11-20T10:48:38;24.38;;;11.70;;
48052;SDS011;33824;51.600;5.718;2022-11-20T10:59:03;28.25;;;13.43;;
48052;SDS011;33824;51.600;5.718;2022-11-20T11:01:30;29.73;;;13.40;;
48052;SDS011;33824;51.600;5.718;2022-11-20T11:03:56;33.15;;;12.38;;
48052;SDS011;33824;51.600;5.718;2022-11-20T11:06:29;30.17;;;12.88;;
48052;SDS011;33824;51.600;5.718;2022-11-20T11:09:09;32.05;;;13.15;;
48052;SDS011;33824;51.600;5.718;2022-11-20T11:11:40;27.38;;;13.38;;
48052;SDS011;33824;51.600;5.718;2022-11-20T11:14:06;31.88;;;13.43;;
48052;SDS011;33824;51.600;5.718;2022-11-20T11:16:44;33.05;;;13.07;;
48052;SDS011;33824;51.600;5.718;2022-11-20T11:19:17;29.15;;;12.25;;
48052;SDS011;33824;51.600;5.718;2022-11-20T11:21:46;31.45;;;13.38;;
48052;SDS011;33824;51.600;5.718;2022-11-20T11:24:19;28.63;;;13.57;;
48052;SDS011;33824;51.600;5.718;2022-11-20T11:26:56;34.95;;;14.18;;
48052;SDS011;33824;51.600;5.718;2022-11-20T11:29:24;41.28;;;13.82;;
48052;SDS011;33824;51.600;5.718;2022-11-20T11:32:02;26.95;;;12.80;;
48052;SDS011;33824;51.600;5.718;2022-11-20T11:34:43;20.55;;;9.98;;
48052;SDS011;33824;51.600;5.718;2022-11-20T11:37:11;32.47;;;13.80;;
48052;SDS011;33824;51.600;5.718;2022-11-20T11:39:41;32.05;;;13.50;;
48052;SDS011;33824;51.600;5.718;2022-11-20T11:42:10;32.92;;;13.70;;
48052;SDS011;33824;51.600;5.718;2022-11-20T11:44:46;34.40;;;13.60;;
48052;SDS011;33824;51.600;5.718;2022-11-20T11:47:32;32.28;;;14.07;;
48052;SDS011;33824;51.600;5.718;2022-11-20T11:50:02;33.22;;;14.00;;
48052;SDS011;33824;51.600;5.718;2022-11-20T11:52:55;42.25;;;15.30;;
48052;SDS011;33824;51.600;5.718;2022-11-20T11:55:42;35.63;;;13.88;;
48052;SDS011;33824;51.600;5.718;2022-11-20T12:00:49;36.78;;;15.90;;
48052;SDS011;33824;51.600;5.718;2022-11-20T12:03:21;40.10;;;14.82;;
48052;SDS011;33824;51.600;5.718;2022-11-20T12:05:57;38.40;;;15.48;;
48052;SDS011;33824;51.600;5.718;2022-11-20T12:14:08;39.65;;;16.45;;
48052;SDS011;33824;51.600;5.718;2022-11-20T12:16:49;37.95;;;15.27;;
48052;SDS011;33824;51.600;5.718;2022-11-20T12:19:16;34.67;;;14.50;;
48052;SDS011;33824;51.600;5.718;2022-11-20T12:22:00;41.05;;;16.13;;
48052;SDS011;33824;51.600;5.718;2022-11-20T12:30:09;44.35;;;17.17;;
48052;SDS011;33824;51.600;5.718;2022-11-20T12:46:24;40.20;;;16.88;;
48052;SDS011;33824;51.600;5.718;2022-11-20T12:54:26;53.15;;;19.73;;
48052;SDS011;33824;51.600;5.718;2022-11-20T12:56:56;51.97;;;18.65;;
48052;SDS011;33824;51.600;5.718;2022-11-20T13:05:08;44.33;;;18.23;;
48052;SDS011;33824;51.600;5.718;2022-11-20T13:07:51;51.97;;;18.83;;
48052;SDS011;33824;51.600;5.718;2022-11-20T13:16:01;48.50;;;19.63;;
48052;SDS011;33824;51.600;5.718;2022-11-20T13:18:41;49.80;;;17.83;;
48052;SDS011;33824;51.600;5.718;2022-11-20T13:21:18;44.95;;;18.00;;
48052;SDS011;33824;51.600;5.718;2022-11-20T13:23:46;48.38;;;18.73;;
48052;SDS011;33824;51.600;5.718;2022-11-20T13:26:22;48.42;;;18.50;;
48052;SDS011;33824;51.600;5.718;2022-11-20T13:28:59;46.38;;;17.77;;
48052;SDS011;33824;51.600;5.718;2022-11-20T13:31:34;49.03;;;17.92;;
48052;SDS011;33824;51.600;5.718;2022-11-20T13:34:03;45.17;;;18.08;;
48052;SDS011;33824;51.600;5.718;2022-11-20T13:36:30;49.10;;;17.67;;
48052;SDS011;33824;51.600;5.718;2022-11-20T13:38:58;41.72;;;16.70;;
48052;SDS011;33824;51.600;5.718;2022-11-20T13:41:28;46.90;;;19.05;;
48052;SDS011;33824;51.600;5.718;2022-11-20T13:46:42;48.55;;;18.40;;
48052;SDS011;33824;51.600;5.718;2022-11-20T13:52:48;44.38;;;18.85;;
48052;SDS011;33824;51.600;5.718;2022-11-20T13:54:54;44.17;;;17.90;;
48052;SDS011;33824;51.600;5.718;2022-11-20T13:57:34;43.75;;;17.38;;
48052;SDS011;33824;51.600;5.718;2022-11-20T14:00:24;46.13;;;17.25;;
48052;SDS011;33824;51.600;5.718;2022-11-20T14:02:57;51.10;;;17.42;;
48052;SDS011;33824;51.600;5.718;2022-11-20T14:05:27;51.53;;;17.60;;
48052;SDS011;33824;51.600;5.718;2022-11-20T14:07:56;41.35;;;16.30;;
48052;SDS011;33824;51.600;5.718;2022-11-20T14:10:24;46.00;;;17.20;;
48052;SDS011;33824;51.600;5.718;2022-11-20T14:12:51;43.17;;;19.10;;
48052;SDS011;33824;51.600;5.718;2022-11-20T14:15:31;51.33;;;17.98;;
48052;SDS011;33824;51.600;5.718;2022-11-20T14:17:58;49.95;;;18.20;;
48052;SDS011;33824;51.600;5.718;2022-11-20T14:20:26;48.75;;;19.02;;
48052;SDS011;33824;51.600;5.718;2022-11-20T14:22:54;48.67;;;17.42;;
48052;SDS011;33824;51.600;5.718;2022-11-20T14:25:24;43.67;;;17.60;;
48052;SDS011;33824;51.600;5.718;2022-11-20T14:27:59;51.47;;;18.05;;
48052;SDS011;33824;51.600;5.718;2022-11-20T14:30:27;45.00;;;17.17;;
48052;SDS011;33824;51.600;5.718;2022-11-20T14:33:01;47.22;;;16.90;;
48052;SDS011;33824;51.600;5.718;2022-11-20T14:35:30;48.25;;;18.15;;
48052;SDS011;33824;51.600;5.718;2022-11-20T14:38:00;51.47;;;18.20;;
48052;SDS011;33824;51.600;5.718;2022-11-20T14:40:29;51.17;;;18.08;;
48052;SDS011;33824;51.600;5.718;2022-11-20T14:43:00;46.67;;;17.00;;
48052;SDS011;33824;51.600;5.718;2022-11-20T14:45:27;41.25;;;17.33;;
48052;SDS011;33824;51.600;5.718;2022-11-20T14:47:54;38.83;;;16.73;;
48052;SDS011;33824;51.600;5.718;2022-11-20T14:50:26;44.15;;;16.33;;
48052;SDS011;33824;51.600;5.718;2022-11-20T14:52:54;48.00;;;16.60;;
48052;SDS011;33824;51.600;5.718;2022-11-20T14:58:04;40.00;;;16.35;;
48052;SDS011;33824;51.600;5.718;2022-11-20T15:00:55;40.03;;;16.30;;
48052;SDS011;33824;51.600;5.718;2022-11-20T15:03:22;38.73;;;15.60;;
48052;SDS011;33824;51.600;5.718;2022-11-20T15:05:49;48.13;;;17.27;;
48052;SDS011;33824;51.600;5.718;2022-11-20T15:08:15;45.28;;;16.05;;
48052;SDS011;33824;51.600;5.718;2022-11-20T15:10:51;47.78;;;17.45;;
48052;SDS011;33824;51.600;5.718;2022-11-20T15:15:58;32.17;;;15.30;;
48052;SDS011;33824;51.600;5.718;2022-11-20T15:18:29;39.45;;;15.40;;
48052;SDS011;33824;51.600;5.718;2022-11-20T15:20:58;40.25;;;16.27;;
48052;SDS011;33824;51.600;5.718;2022-11-20T15:23:28;33.90;;;14.55;;
48052;SDS011;33824;51.600;5.718;2022-11-20T15:25:54;41.80;;;17.40;;
48052;SDS011;33824;51.600;5.718;2022-11-20T15:28:21;37.53;;;15.88;;
48052;SDS011;33824;51.600;5.718;2022-11-20T15:30:52;35.40;;;14.85;;
48052;SDS011;33824;51.600;5.718;2022-11-20T15:33:18;39.60;;;15.63;;
48052;SDS011;33824;51.600;5.718;2022-11-20T15:35:44;44.85;;;16.80;;
48052;SDS011;33824;51.600;5.718;2022-11-20T15:38:09;37.30;;;16.17;;
48052;SDS011;33824;51.600;5.718;2022-11-20T15:40:35;37.47;;;14.68;;
48052;SDS011;33824;51.600;5.718;2022-11-20T15:43:01;37.42;;;15.07;;
48052;SDS011;33824;51.600;5.718;2022-11-20T15:48:08;39.00;;;14.93;;
48052;SDS011;33824;51.600;5.718;2022-11-20T15:50:38;25.67;;;10.95;;
48052;SDS011;33824;51.600;5.718;2022-11-20T15:53:09;37.75;;;13.68;;
48052;SDS011;33824;51.600;5.718;2022-11-20T15:55:35;37.72;;;15.43;;
48052;SDS011;33824;51.600;5.718;2022-11-20T15:58:01;36.45;;;14.18;;
48052;SDS011;33824;51.600;5.718;2022-11-20T16:00:26;35.47;;;15.50;;
48052;SDS011;33824;51.600;5.718;2022-11-20T16:02:52;42.50;;;15.82;;
48052;SDS011;33824;51.600;5.718;2022-11-20T16:05:19;36.88;;;15.18;;